createdAt,value
2023-11-23T00:00:12.370Z,17.15
2023-11-23T00:02:40.493Z,16.73
2023-11-23T00:05:09.019Z,16.58
2023-11-23T00:07:36.578Z,17.17
2023-11-23T00:10:06.702Z,17.17
2023-11-23T00:12:34.221Z,16.77
2023-11-23T00:15:02.400Z,16.73
2023-11-23T00:17:31.819Z,17.08
2023-11-23T00:20:00.172Z,17.27
2023-11-23T00:22:27.810Z,17.38
2023-11-23T00:24:57.953Z,18.65
2023-11-23T00:27:25.375Z,18.75
2023-11-23T00:29:52.916Z,18.67
2023-11-23T00:32:20.802Z,18.95
2023-11-23T00:34:48.338Z,19.65
2023-11-23T00:37:16.281Z,19.80
2023-11-23T00:39:44.011Z,20.27
2023-11-23T00:42:11.553Z,20.35
2023-11-23T00:44:39.156Z,19.50
2023-11-23T00:47:07.670Z,20.45
2023-11-23T00:49:36.080Z,19.95
2023-11-23T00:52:03.686Z,20.50
2023-11-23T00:54:38.801Z,20.23
2023-11-23T00:57:09.494Z,20.20
2023-11-23T00:59:37.029Z,20.70
2023-11-23T01:02:05.486Z,20.45
2023-11-23T01:04:33.945Z,19.13
2023-11-23T01:07:02.054Z,19.55
2023-11-23T01:09:29.529Z,17.85
2023-11-23T01:11:57.034Z,18.38
2023-11-23T01:14:24.839Z,20.08
2023-11-23T01:16:52.347Z,18.55
2023-11-23T01:19:19.807Z,18.92
2023-11-23T01:21:47.245Z,19.20
2023-11-23T01:24:14.765Z,18.08
2023-11-23T01:26:42.206Z,17.90
2023-11-23T01:29:09.942Z,17.50
2023-11-23T01:31:37.339Z,18.05
2023-11-23T01:34:05.319Z,17.98
2023-11-23T01:36:32.948Z,16.95
2023-11-23T01:39:00.452Z,17.60
2023-11-23T01:41:27.976Z,17.95
2023-11-23T01:43:55.526Z,17.33
2023-11-23T01:46:23.116Z,17.80
2023-11-23T01:48:50.561Z,16.50
2023-11-23T01:51:18.212Z,16.65
2023-11-23T01:53:45.759Z,16.77
2023-11-23T01:56:13.156Z,17.10
2023-11-23T01:58:40.570Z,16.80
2023-11-23T02:01:08.072Z,17.10
2023-11-23T02:03:35.672Z,17.17
2023-11-23T02:06:03.156Z,15.95
2023-11-23T02:08:30.535Z,16.80
2023-11-23T02:10:59.405Z,16.38
2023-11-23T02:13:26.855Z,16.67
2023-11-23T02:15:54.401Z,16.08
2023-11-23T02:18:21.857Z,16.35
2023-11-23T02:20:49.306Z,15.80
2023-11-23T02:23:16.688Z,15.10
2023-11-23T02:25:44.070Z,16.30
2023-11-23T02:28:11.642Z,15.52
2023-11-23T02:30:39.075Z,14.85
2023-11-23T02:33:09.135Z,13.75
2023-11-23T02:35:36.861Z,13.50
2023-11-23T02:38:04.287Z,12.63
2023-11-23T02:40:31.645Z,13.15
2023-11-23T02:42:59.776Z,13.75
2023-11-23T02:45:27.625Z,13.50
2023-11-23T02:47:55.312Z,13.05
2023-11-23T02:50:22.780Z,12.70
2023-11-23T02:52:50.190Z,12.52
2023-11-23T02:55:17.557Z,13.85
2023-11-23T02:57:44.925Z,13.05
2023-11-23T03:00:13.804Z,12.60
2023-11-23T03:02:41.342Z,13.10
2023-11-23T03:05:11.617Z,12.65
2023-11-23T03:07:40.012Z,11.95
2023-11-23T03:10:07.908Z,12.52
2023-11-23T03:12:35.305Z,12.57
2023-11-23T03:15:04.274Z,12.60
2023-11-23T03:17:33.372Z,13.07
2023-11-23T03:20:00.932Z,12.98
2023-11-23T03:22:28.287Z,12.30
2023-11-23T03:24:56.883Z,13.70
2023-11-23T03:27:24.304Z,13.60
2023-11-23T03:29:51.756Z,13.38
2023-11-23T03:32:19.533Z,13.43
2023-11-23T03:34:46.925Z,12.85
2023-11-23T03:37:14.447Z,12.98
2023-11-23T03:39:41.960Z,13.85
2023-11-23T03:42:10.302Z,13.45
2023-11-23T03:44:37.728Z,13.70
2023-11-23T03:47:05.349Z,13.10
2023-11-23T03:49:32.677Z,14.48
2023-11-23T03:52:00.107Z,13.63
2023-11-23T03:54:27.679Z,14.07
2023-11-23T03:56:55.156Z,14.25
2023-11-23T03:59:22.583Z,13.95
2023-11-23T04:01:50.797Z,14.55
2023-11-23T04:04:18.264Z,15.07
2023-11-23T04:06:45.611Z,14.85
2023-11-23T04:09:13.649Z,15.13
2023-11-23T04:11:41.860Z,14.45
2023-11-23T04:14:09.298Z,14.63
2023-11-23T04:16:37.516Z,15.30
2023-11-23T04:19:05.005Z,15.05
2023-11-23T04:21:32.398Z,14.23
2023-11-23T04:23:59.792Z,14.30
2023-11-23T04:26:27.341Z,15.32
2023-11-23T04:28:54.858Z,15.23
2023-11-23T04:31:22.648Z,14.50
2023-11-23T04:33:50.026Z,13.82
2023-11-23T04:36:17.482Z,13.35
2023-11-23T04:38:44.879Z,13.18
2023-11-23T04:41:13.479Z,13.95
2023-11-23T04:43:41.025Z,13.40
2023-11-23T04:46:08.535Z,13.30
2023-11-23T04:48:36.076Z,11.60
2023-11-23T04:51:03.580Z,11.98
2023-11-23T04:53:30.920Z,11.68
2023-11-23T04:55:58.917Z,12.27
2023-11-23T04:58:27.423Z,11.65
2023-11-23T05:00:54.890Z,12.13
2023-11-23T05:03:22.673Z,11.45
2023-11-23T05:05:50.136Z,11.55
2023-11-23T05:08:17.546Z,11.13
2023-11-23T05:10:45.051Z,11.13
2023-11-23T05:13:13.704Z,12.32
2023-11-23T05:15:41.365Z,11.65
2023-11-23T05:18:08.859Z,10.90
2023-11-23T05:20:36.428Z,11.35
2023-11-23T05:23:03.803Z,11.90
2023-11-23T05:25:31.375Z,11.20
2023-11-23T05:27:58.823Z,11.70
2023-11-23T05:30:27.878Z,11.82
2023-11-23T05:32:55.714Z,12.35
2023-11-23T05:35:23.102Z,13.30
2023-11-23T05:37:50.511Z,12.60
2023-11-23T05:40:17.983Z,12.60
2023-11-23T05:42:53.944Z,12.77
2023-11-23T05:45:28.037Z,13.27
2023-11-23T05:47:55.901Z,12.60
2023-11-23T05:50:23.812Z,12.93
2023-11-23T05:52:51.171Z,12.98
2023-11-23T05:55:18.688Z,13.73
2023-11-23T05:57:46.092Z,12.85
2023-11-23T06:00:15.371Z,13.98
2023-11-23T06:02:43.958Z,13.00
2023-11-23T06:05:11.558Z,13.52
2023-11-23T06:07:39.102Z,13.82
2023-11-23T06:10:07.610Z,13.85
2023-11-23T06:12:36.564Z,12.70
2023-11-23T06:15:04.788Z,13.70
2023-11-23T06:17:32.582Z,13.68
2023-11-23T06:20:00.094Z,14.25
2023-11-23T06:22:27.892Z,13.63
2023-11-23T06:24:55.248Z,14.05
2023-11-23T06:27:22.749Z,14.02
2023-11-23T06:29:50.179Z,14.02
2023-11-23T06:32:18.249Z,13.25
2023-11-23T06:34:46.360Z,14.45
2023-11-23T06:37:13.747Z,13.40
2023-11-23T06:39:41.332Z,14.60
2023-11-23T06:42:08.739Z,13.80
2023-11-23T06:44:36.150Z,14.00
2023-11-23T06:47:05.094Z,13.43
2023-11-23T06:49:33.386Z,13.40
2023-11-23T06:52:00.811Z,14.20
2023-11-23T06:54:28.545Z,13.70
2023-11-23T06:56:58.437Z,14.20
2023-11-23T06:59:26.374Z,13.63
2023-11-23T07:01:54.588Z,14.10
2023-11-23T07:04:22.661Z,14.98
2023-11-23T07:06:50.954Z,14.40
2023-11-23T07:09:18.892Z,14.63
2023-11-23T07:11:46.420Z,12.68
2023-11-23T07:14:13.813Z,13.77
2023-11-23T07:16:41.646Z,13.85
2023-11-23T07:19:08.998Z,14.00
2023-11-23T07:21:36.459Z,14.45
2023-11-23T07:24:04.128Z,13.05
2023-11-23T07:26:33.116Z,14.23
2023-11-23T07:29:00.562Z,14.15
2023-11-23T07:31:28.096Z,13.85
2023-11-23T07:33:55.594Z,14.60
2023-11-23T07:36:25.185Z,13.00
2023-11-23T07:38:52.628Z,12.43
2023-11-23T07:41:19.975Z,12.70
2023-11-23T07:43:47.876Z,12.10
2023-11-23T07:46:16.608Z,12.82
2023-11-23T07:48:45.786Z,11.95
2023-11-23T07:51:13.171Z,12.00
2023-11-23T07:53:40.565Z,11.48
2023-11-23T07:56:11.615Z,11.32
2023-11-23T07:58:39.069Z,14.18
2023-11-23T08:01:06.963Z,12.63
2023-11-23T08:03:34.503Z,11.07
2023-11-23T08:06:02.067Z,11.32
2023-11-23T08:08:30.538Z,9.63
2023-11-23T08:10:58.053Z,10.27
2023-11-23T08:13:25.766Z,10.00
2023-11-23T08:15:53.135Z,11.13
2023-11-23T08:18:20.605Z,10.40
2023-11-23T08:20:48.059Z,10.30
2023-11-23T08:23:15.915Z,10.60
2023-11-23T08:25:43.334Z,9.98
2023-11-23T08:28:10.939Z,10.52
2023-11-23T08:30:38.379Z,10.38
2023-11-23T08:33:07.023Z,10.27
2023-11-23T08:35:34.769Z,10.35
2023-11-23T08:38:02.182Z,9.52
2023-11-23T08:40:29.804Z,10.10
2023-11-23T08:42:57.608Z,8.93
2023-11-23T08:45:26.096Z,9.52
2023-11-23T08:47:53.755Z,10.30
2023-11-23T08:50:21.328Z,10.02
2023-11-23T08:52:48.696Z,10.27
2023-11-23T08:55:16.301Z,8.98
2023-11-23T08:57:43.814Z,9.05
2023-11-23T09:00:12.469Z,8.95
2023-11-23T09:02:40.033Z,9.63
2023-11-23T09:05:10.000Z,8.75
2023-11-23T09:07:38.763Z,9.90
2023-11-23T09:10:06.957Z,10.38
2023-11-23T09:12:35.165Z,10.10
2023-11-23T09:15:05.741Z,10.13
2023-11-23T09:17:34.576Z,9.85
2023-11-23T09:20:02.058Z,9.30
2023-11-23T09:22:29.447Z,9.65
2023-11-23T09:24:57.560Z,9.60
2023-11-23T09:27:25.123Z,9.50
2023-11-23T09:29:52.674Z,9.20
2023-11-23T09:32:20.080Z,9.23
2023-11-23T09:34:47.712Z,9.20
2023-11-23T09:37:15.177Z,8.80
2023-11-23T09:39:45.005Z,9.00
2023-11-23T09:42:13.008Z,9.02
2023-11-23T09:44:40.425Z,8.75
2023-11-23T09:47:07.983Z,9.45
2023-11-23T09:49:36.657Z,8.95
2023-11-23T09:52:04.372Z,9.00
2023-11-23T09:54:34.004Z,8.95
2023-11-23T09:57:02.639Z,8.88
2023-11-23T09:59:30.765Z,9.95
2023-11-23T10:02:06.045Z,8.88
2023-11-23T10:04:35.344Z,8.30
2023-11-23T10:07:03.239Z,9.20
2023-11-23T10:09:34.472Z,9.27
2023-11-23T10:12:04.000Z,9.20
2023-11-23T10:14:31.788Z,8.90
2023-11-23T10:16:59.258Z,9.45
2023-11-23T10:19:26.694Z,10.05
2023-11-23T10:22:00.828Z,9.70
2023-11-23T10:24:29.203Z,10.43
2023-11-23T10:26:57.341Z,9.63
2023-11-23T10:29:29.602Z,9.48
2023-11-23T10:32:01.026Z,9.55
2023-11-23T10:34:31.614Z,9.30
2023-11-23T10:36:59.628Z,9.75
2023-11-23T10:39:28.830Z,9.02
2023-11-23T10:41:56.657Z,8.68
2023-11-23T10:44:24.154Z,9.27
2023-11-23T10:46:54.800Z,9.63
2023-11-23T10:49:22.503Z,9.35
2023-11-23T10:51:50.306Z,9.75
2023-11-23T10:54:17.711Z,8.85
2023-11-23T10:56:45.140Z,9.77
2023-11-23T10:59:19.160Z,9.55
2023-11-23T11:01:46.726Z,9.95
2023-11-23T11:04:14.626Z,10.43
2023-11-23T11:06:42.666Z,9.20
2023-11-23T11:09:17.705Z,9.60
2023-11-23T11:11:54.755Z,9.20
2023-11-23T11:14:35.551Z,9.02
2023-11-23T11:17:09.273Z,9.45
2023-11-23T11:19:49.817Z,9.95
2023-11-23T11:22:17.634Z,9.52
2023-11-23T11:24:47.787Z,8.68
2023-11-23T11:27:15.954Z,9.00
2023-11-23T11:29:52.865Z,9.07
2023-11-23T11:32:21.925Z,9.65
2023-11-23T11:34:49.300Z,10.23
2023-11-23T11:37:16.737Z,9.02
2023-11-23T11:39:44.157Z,8.63
2023-11-23T11:42:11.921Z,9.05
2023-11-23T11:44:46.626Z,8.50
2023-11-23T11:47:14.265Z,9.35
2023-11-23T11:49:41.709Z,10.20
2023-11-23T11:52:13.628Z,8.23
2023-11-23T11:54:41.328Z,7.60
2023-11-23T11:57:08.970Z,8.13
2023-11-23T11:59:37.858Z,8.05
2023-11-23T12:02:06.803Z,7.95
2023-11-23T12:04:39.377Z,7.57
2023-11-23T12:07:14.241Z,7.68
2023-11-23T12:09:46.537Z,8.30
2023-11-23T12:12:15.397Z,8.10
2023-11-23T12:14:42.905Z,8.02
2023-11-23T12:17:14.554Z,8.00
2023-11-23T12:19:54.787Z,7.72
2023-11-23T12:22:28.026Z,7.05
2023-11-23T12:25:00.418Z,7.82
2023-11-23T12:27:28.118Z,7.60
2023-11-23T12:29:55.713Z,8.63
2023-11-23T12:32:23.806Z,7.97
2023-11-23T12:34:51.271Z,8.38
2023-11-23T12:37:18.758Z,8.48
2023-11-23T12:39:50.838Z,8.13
2023-11-23T12:42:18.600Z,8.25
2023-11-23T12:44:47.544Z,8.15
2023-11-23T12:47:15.885Z,7.75
2023-11-23T12:49:46.372Z,7.50
2023-11-23T12:52:13.757Z,7.88
2023-11-23T12:54:43.823Z,7.22
2023-11-23T12:57:11.758Z,7.82
2023-11-23T12:59:39.172Z,7.93
2023-11-23T13:02:06.757Z,8.50
2023-11-23T13:04:35.927Z,7.93
2023-11-23T13:07:03.664Z,9.13
2023-11-23T13:09:32.442Z,7.95
2023-11-23T13:12:00.296Z,7.32
2023-11-23T13:14:27.854Z,7.78
2023-11-23T13:16:55.266Z,7.53
2023-11-23T13:19:30.456Z,7.90
2023-11-23T13:22:05.490Z,7.45
2023-11-23T13:24:35.521Z,8.30
2023-11-23T13:27:03.242Z,9.30
2023-11-23T13:29:31.095Z,9.00
2023-11-23T13:31:58.932Z,9.48
2023-11-23T13:34:27.579Z,9.85
2023-11-23T13:36:55.332Z,8.88
2023-11-23T13:39:23.118Z,9.93
2023-11-23T13:41:50.886Z,10.02
2023-11-23T13:44:19.122Z,9.80
2023-11-23T13:46:46.841Z,10.25
2023-11-23T13:49:14.912Z,9.35
2023-11-23T13:51:42.409Z,10.02
2023-11-23T13:54:10.509Z,9.50
2023-11-23T13:56:41.337Z,9.90
2023-11-23T13:59:12.042Z,11.38
2023-11-23T14:01:40.359Z,10.20
2023-11-23T14:04:08.286Z,10.35
2023-11-23T14:06:35.882Z,10.27
2023-11-23T14:09:04.755Z,10.45
2023-11-23T14:11:32.337Z,10.30
2023-11-23T14:14:01.682Z,10.50
2023-11-23T14:20:07.754Z,10.25
2023-11-23T14:22:36.112Z,9.77
2023-11-23T14:25:04.631Z,10.45
2023-11-23T14:27:32.139Z,9.77
2023-11-23T14:29:59.769Z,10.45
2023-11-23T14:32:27.729Z,10.70
2023-11-23T14:34:55.197Z,9.93
2023-11-23T14:37:24.216Z,9.32
2023-11-23T14:39:52.080Z,9.65
2023-11-23T14:42:19.493Z,9.43
2023-11-23T14:44:48.048Z,9.73
2023-11-23T14:47:15.687Z,10.10
2023-11-23T14:49:43.084Z,9.20
2023-11-23T14:52:11.777Z,10.38
2023-11-23T14:54:39.875Z,12.55
2023-11-23T14:57:09.034Z,9.70
2023-11-23T14:59:37.375Z,9.70
2023-11-23T15:02:05.014Z,9.40
2023-11-23T15:04:34.753Z,9.43
2023-11-23T15:07:03.584Z,9.65
2023-11-23T15:09:31.065Z,9.57
2023-11-23T15:11:59.782Z,9.25
2023-11-23T15:14:27.417Z,10.13
2023-11-23T15:16:55.309Z,9.25
2023-11-23T15:19:23.431Z,9.10
2023-11-23T15:21:51.043Z,9.70
2023-11-23T15:24:18.748Z,9.15
2023-11-23T15:31:03.938Z,9.18
2023-11-23T15:33:35.204Z,9.65
2023-11-23T15:36:06.919Z,9.00
2023-11-23T15:38:35.706Z,8.60
2023-11-23T15:41:04.351Z,8.68
2023-11-23T15:43:31.809Z,9.10
2023-11-23T15:45:59.524Z,8.93
2023-11-23T15:48:27.350Z,9.25
2023-11-23T15:50:54.816Z,8.88
2023-11-23T15:53:22.294Z,9.27
2023-11-23T15:55:51.907Z,9.40
2023-11-23T15:58:19.345Z,9.40
2023-11-23T16:00:46.815Z,8.90
2023-11-23T16:03:15.138Z,9.40
2023-11-23T16:05:42.721Z,9.10
2023-11-23T16:08:10.634Z,9.27
2023-11-23T16:10:38.134Z,9.00
2023-11-23T16:13:05.646Z,9.40
2023-11-23T16:15:33.068Z,8.65
2023-11-23T16:18:02.087Z,9.07
2023-11-23T16:20:29.495Z,8.77
2023-11-23T16:22:56.907Z,8.25
2023-11-23T16:25:27.140Z,8.82
2023-11-23T16:27:54.699Z,9.05
2023-11-23T16:30:22.136Z,9.73
2023-11-23T16:32:49.575Z,8.85
2023-11-23T16:35:17.006Z,8.77
2023-11-23T16:37:45.339Z,9.07
2023-11-23T16:40:13.066Z,8.93
2023-11-23T16:42:41.688Z,8.93
2023-11-23T16:45:10.027Z,9.30
2023-11-23T16:47:37.832Z,8.30
2023-11-23T16:50:05.703Z,8.13
2023-11-23T16:52:33.486Z,9.02
2023-11-23T16:55:01.226Z,8.95
2023-11-23T16:57:29.189Z,8.60
2023-11-23T16:59:57.994Z,9.07
2023-11-23T17:02:26.160Z,8.35
2023-11-23T17:04:55.537Z,8.32
2023-11-23T17:07:24.057Z,8.40
2023-11-23T17:09:54.032Z,8.63
2023-11-23T17:12:21.550Z,8.68
2023-11-23T17:14:48.965Z,8.13
2023-11-23T17:17:16.355Z,8.52
2023-11-23T17:19:43.938Z,8.00
2023-11-23T17:22:11.508Z,7.82
2023-11-23T17:24:40.763Z,8.38
2023-11-23T17:27:08.436Z,9.07
2023-11-23T17:29:36.999Z,7.78
2023-11-23T17:32:08.875Z,8.77
2023-11-23T17:34:37.040Z,8.63
2023-11-23T17:37:05.066Z,8.73
2023-11-23T17:39:32.823Z,8.63
2023-11-23T17:42:00.378Z,8.15
2023-11-23T17:44:27.846Z,8.25
2023-11-23T17:46:55.459Z,8.25
2023-11-23T17:49:22.890Z,8.13
2023-11-23T17:51:50.638Z,8.52
2023-11-23T17:54:18.127Z,8.35
2023-11-23T17:56:45.498Z,8.88
2023-11-23T17:59:25.664Z,8.88
2023-11-23T18:02:04.852Z,8.68
2023-11-23T18:04:51.677Z,8.73
2023-11-23T18:07:21.481Z,8.60
2023-11-23T18:09:50.618Z,9.45
2023-11-23T18:12:18.302Z,8.52
2023-11-23T18:14:45.735Z,9.25
2023-11-23T18:17:13.186Z,8.85
2023-11-23T18:19:40.552Z,9.10
2023-11-23T18:22:09.423Z,8.63
2023-11-23T18:24:37.248Z,8.88
2023-11-23T18:27:07.367Z,9.50
2023-11-23T18:29:37.241Z,9.23
2023-11-23T18:32:04.824Z,9.52
2023-11-23T18:34:34.866Z,9.88
2023-11-23T18:37:02.286Z,9.93
2023-11-23T18:39:29.814Z,9.15
2023-11-23T18:41:57.166Z,9.77
2023-11-23T18:44:24.638Z,9.43
2023-11-23T18:46:52.094Z,9.45
2023-11-23T18:49:24.400Z,9.30
2023-11-23T18:51:52.039Z,9.00
2023-11-23T18:54:20.832Z,9.05
2023-11-23T18:56:48.249Z,9.43
2023-11-23T18:59:15.615Z,9.15
2023-11-23T19:01:43.975Z,8.52
2023-11-23T19:04:11.544Z,9.70
2023-11-23T19:06:40.094Z,9.27
2023-11-23T19:09:11.710Z,9.48
2023-11-23T19:11:39.190Z,9.48
2023-11-23T19:14:06.588Z,9.45
2023-11-23T19:16:34.049Z,9.52
2023-11-23T19:19:03.707Z,10.63
2023-11-23T19:21:31.872Z,9.90
2023-11-23T19:23:59.556Z,10.20
2023-11-23T19:26:27.452Z,10.10
2023-11-23T19:28:55.551Z,10.55
2023-11-23T19:31:23.163Z,10.35
2023-11-23T19:33:51.670Z,10.25
2023-11-23T19:36:20.824Z,10.00
2023-11-23T19:38:49.174Z,10.30
2023-11-23T19:41:16.697Z,10.43
2023-11-23T19:43:44.281Z,10.38
2023-11-23T19:46:12.308Z,11.00
2023-11-23T19:48:40.483Z,9.73
2023-11-23T19:51:10.302Z,10.35
2023-11-23T19:53:40.973Z,9.85
2023-11-23T19:56:09.469Z,10.90
2023-11-23T19:58:38.429Z,10.88
2023-11-23T20:01:06.149Z,11.40
2023-11-23T20:03:33.989Z,11.60
2023-11-23T20:06:03.714Z,11.52
2023-11-23T20:08:32.598Z,11.20
2023-11-23T20:11:00.076Z,11.52
2023-11-23T20:13:27.426Z,12.35
2023-11-23T20:15:54.797Z,12.52
2023-11-23T20:18:22.838Z,12.70
2023-11-23T20:20:50.280Z,12.57
2023-11-23T20:23:17.746Z,12.93
2023-11-23T20:25:45.170Z,12.48
2023-11-23T20:28:13.524Z,12.82
2023-11-23T20:30:41.210Z,13.52
2023-11-23T20:33:09.382Z,13.45
2023-11-23T20:35:37.961Z,13.55
2023-11-23T20:38:05.754Z,13.05
2023-11-23T20:40:33.159Z,13.52
2023-11-23T20:43:01.549Z,13.73
2023-11-23T20:45:29.161Z,13.80
2023-11-23T20:47:56.751Z,13.70
2023-11-23T20:50:24.189Z,13.75
2023-11-23T20:52:51.527Z,14.80
2023-11-23T20:55:20.571Z,14.05
2023-11-23T20:57:48.811Z,14.18
2023-11-23T21:00:17.463Z,14.30
2023-11-23T21:02:45.580Z,14.13
2023-11-23T21:05:13.578Z,14.43
2023-11-23T21:07:41.325Z,14.80
2023-11-23T21:10:09.877Z,15.25
2023-11-23T21:12:37.344Z,15.95
2023-11-23T21:15:05.537Z,15.90
2023-11-23T21:17:34.945Z,16.48
2023-11-23T21:20:02.389Z,16.13
2023-11-23T21:22:30.631Z,16.85
2023-11-23T21:24:58.053Z,16.55
2023-11-23T21:27:31.846Z,16.85
2023-11-23T21:29:59.303Z,18.80
2023-11-23T21:32:26.706Z,16.70
2023-11-23T21:34:54.448Z,16.17
2023-11-23T21:37:22.337Z,15.75
2023-11-23T21:39:49.823Z,17.20
2023-11-23T21:42:18.831Z,16.70
2023-11-23T21:44:46.682Z,16.60
2023-11-23T21:47:14.078Z,16.52
2023-11-23T21:49:42.344Z,16.48
2023-11-23T21:52:10.239Z,17.00
2023-11-23T21:54:47.381Z,15.30
2023-11-23T21:57:20.880Z,15.02
2023-11-23T21:59:48.490Z,14.68
2023-11-23T22:02:15.972Z,14.40
2023-11-23T22:04:45.808Z,13.52
2023-11-23T22:07:13.253Z,14.55
2023-11-23T22:09:40.650Z,13.15
2023-11-23T22:12:08.107Z,13.32
2023-11-23T22:14:37.236Z,12.52
2023-11-23T22:17:04.962Z,12.07
2023-11-23T22:19:32.621Z,12.18
2023-11-23T22:22:00.342Z,12.32
2023-11-23T22:24:28.542Z,11.70
2023-11-23T22:26:56.182Z,11.00
2023-11-23T22:29:23.538Z,11.13
2023-11-23T22:31:51.273Z,11.68
2023-11-23T22:34:18.924Z,11.95
2023-11-23T22:36:46.651Z,11.43
2023-11-23T22:39:14.859Z,11.30
2023-11-23T22:41:43.074Z,11.55
2023-11-23T22:44:13.506Z,12.02
2023-11-23T22:46:41.219Z,11.68
2023-11-23T22:49:09.634Z,12.55
2023-11-23T22:51:37.040Z,12.48
2023-11-23T22:54:04.502Z,12.07
2023-11-23T22:56:31.911Z,12.43
2023-11-23T22:58:59.409Z,13.15
2023-11-23T23:01:26.962Z,11.50
2023-11-23T23:03:54.478Z,11.82
2023-11-23T23:06:21.979Z,11.35
2023-11-23T23:08:49.848Z,10.88
2023-11-23T23:11:18.778Z,12.00
2023-11-23T23:13:46.174Z,11.43
2023-11-23T23:16:15.163Z,11.38
2023-11-23T23:18:42.595Z,10.65
2023-11-23T23:21:10.089Z,10.38
2023-11-23T23:23:37.469Z,9.57
2023-11-23T23:26:04.870Z,9.63
2023-11-23T23:28:32.990Z,9.77
2023-11-23T23:31:00.560Z,8.27
2023-11-23T23:33:28.193Z,8.60
2023-11-23T23:35:55.809Z,8.20
2023-11-23T23:38:23.680Z,9.05
2023-11-23T23:40:51.706Z,8.35
2023-11-23T23:43:19.304Z,7.78
2023-11-23T23:45:47.445Z,7.80
2023-11-23T23:48:15.056Z,7.50
2023-11-23T23:50:42.407Z,7.03
2023-11-23T23:53:09.775Z,7.70
2023-11-23T23:55:37.209Z,7.75
2023-11-23T23:58:05.709Z,7.65
